Bowen, Kentucky
Current Conditions -  °F | °C
As of 11:35 AM on Monday 24 Nov 2014 (Local Time) from KIOB Reporting Station
Overcast Overcast  
Wind Chill: 61°   Ceiling: 4800
Heat Index: 61°   Visibility: 10mi
Dew Point: 45°   Wind: 18mph
Humidity: 55%   Direction: 260°W
Pressure: 29.57"   Gusts: 38mph
Location:  37.84°N, 83.77°W
Report Text: KIOB 241635Z AUTO 26016G33KT 10SM BKN048 BKN060 OVC070 16/07 A2957 RMK AO2
Loading
Personal Weather Stations






























Interactive Weather Map New forecast layout! Learn more

10-Day Weather Forecast

Advertisements
Track Severe Weather on mobile